Latitude: N 50° 09' 49" Longitude: W 05° 11' 53" Elevation: 168m ASL

There are 14 visitors online

Adverts
Latest METAR Data

Below are the latest METARs ("Meteorological Services to Airmen Reports"), for RNAS Culdrose and Newquay Airport.

EGDR - RNAS Culdrose
Distance from station: SW 6mi, 9km
Updated: Tue, 14-Aug-2018 7:50pm BST
Partly Cloudy
Partly Cloudy
 Wind from W
Wind: W 14 mph , 22 km/h
Temperature: 64°F , 18°C
Dew Point: 59°F , 15°C
Humidity: 83%
Barometer: 30.12 inHg , 1020 hPa
Clouds: Partly Cloudy
Visibility: 6 miles , 10 km
Cloud details: Few Clouds 1000 ft
Partly Cloudy 2400 ft
2018/08/14 18:50 EGDR 141850Z 27012KT 9999 FEW010 SCT024 18/15 Q1020 WHT NOSIG
EGHQ - Newquay Airport
Distance from station: NE 21mi, 34km
Updated: Tue, 14-Aug-2018 8:20pm BST
Partly Cloudy
Partly Cloudy
 Wind from W
Wind: W 14 mph , 22 km/h
Temperature: 61°F , 16°C
Dew Point: 57°F , 14°C
Humidity: 88%
Barometer: 30.12 inHg , 1020 hPa
Clouds: Partly Cloudy
Visibility: 6 miles , 10 km
Cloud details: Partly Cloudy 2200 ft
2018/08/14 19:20 EGHQ 141920Z 26012KT 9999 SCT022 16/14 Q1020
 
EGTE - Exeter Airport
Distance from station: ENE 88mi, 141km
Updated: Tue, 14-Aug-2018 8:20pm BST
Mostly Cloudy
Mostly Cloudy
 Wind from W
Wind: W 8 mph , 13 km/h
Temperature: 64°F , 18°C
Dew Point: 57°F , 14°C
Humidity: 78%
Barometer: 30.09 inHg , 1019 hPa
Clouds: Mostly Cloudy
Visibility: 6 miles , 10 km
Cloud details: Mostly Cloudy 2100 ft
2018/08/14 19:20 EGTE 141920Z 27007KT 230V320 9999 BKN021 18/14 Q1019
EGHE - St Marys, IOS
Distance from station: W 51mi, 82km
Updated: Tue, 14-Aug-2018 5:50pm BST
NOT Current
Mostly Cloudy
Mostly Cloudy
 Wind from W
Wind: W 15 mph , 24 km/h
Temperature: 66°F , 19°C
Dew Point: 63°F , 17°C
Humidity: 88%
Barometer: 30.15 inHg , 1021 hPa
Clouds: Mostly Cloudy
Visibility: 6 miles , 10 km
Cloud details: Few Clouds 900 ft
Mostly Cloudy 2500 ft
2018/08/14 16:50 EGHE 141650Z 26013KT 9999 FEW009 BKN025 19/17 Q1021

Metar display script from Saratoga-Weather.org

UK - WEATHER STATION TOPSITES - UK World Weather Websites

This is a private weather station, never base important decisions or events on data from this weather station. Although every effort has been made to make the data as accurate as possible it does not meet MetOffice standards. It is proved as a guide of local weather conditions. We accept no liability for any loss which may arise from use of the data.

Copyright © Carnkie Weather 2009 - 2018.